createdAt,value
2018-07-22T02:40:32.089Z,3
2018-07-22T02:49:03.677Z,7
2018-07-22T02:52:04.247Z,10
2018-07-22T02:54:04.527Z,13
2018-07-22T02:56:04.897Z,17
2018-07-22T02:57:35.257Z,20
2018-07-22T02:58:35.265Z,23
2018-07-22T02:59:35.447Z,27
2018-07-22T03:00:35.693Z,30
2018-07-22T03:01:35.795Z,33
2018-07-22T03:02:05.927Z,37
2018-07-22T03:03:06.614Z,40
2018-07-22T03:03:36.136Z,43
2018-07-22T03:04:36.330Z,47
2018-07-22T03:05:06.675Z,50
2018-07-22T03:05:36.566Z,53
2018-07-22T03:06:06.645Z,57
2018-07-22T03:07:06.821Z,60
2018-07-22T03:07:36.876Z,63
2018-07-22T03:08:07.124Z,67
2018-07-22T03:08:37.053Z,70
2018-07-22T03:09:07.235Z,73
2018-07-22T03:10:07.453Z,77
2018-07-22T03:10:37.479Z,80
2018-07-22T03:11:07.644Z,83
2018-07-22T03:11:37.662Z,87
2018-07-22T03:12:07.805Z,90
2018-07-22T03:12:37.829Z,93
2018-07-22T03:13:08.115Z,100
2018-07-22T03:13:38.024Z,103
2018-07-22T03:14:08.207Z,107
2018-07-22T03:14:38.206Z,110
2018-07-22T03:15:08.370Z,117
2018-07-22T03:15:38.385Z,123
2018-07-22T03:16:08.527Z,127
2018-07-22T03:16:38.569Z,133
2018-07-22T03:17:08.664Z,140
2018-07-22T03:17:38.718Z,147
2018-07-22T03:18:09.347Z,153
2018-07-22T03:18:38.878Z,163
2018-07-22T03:19:09.021Z,170
2018-07-22T03:19:39.090Z,177
2018-07-22T03:20:09.248Z,183
2018-07-22T03:20:39.227Z,193
2018-07-22T03:21:09.431Z,200
2018-07-22T03:21:39.458Z,207
2018-07-22T03:22:09.580Z,213
2018-07-22T03:22:39.581Z,217
2018-07-22T03:23:09.861Z,223
2018-07-22T03:23:39.764Z,230
2018-07-22T03:24:09.925Z,237
2018-07-22T03:24:39.938Z,243
2018-07-22T03:25:10.092Z,250
2018-07-22T03:25:40.165Z,253
2018-07-22T03:26:10.328Z,260
2018-07-22T03:26:40.336Z,267
2018-07-22T03:27:10.470Z,273
2018-07-22T03:27:40.468Z,280
2018-07-22T03:28:10.800Z,290
2018-07-22T03:28:40.670Z,297
2018-07-22T03:29:10.853Z,307
2018-07-22T03:29:40.850Z,313
2018-07-22T03:30:10.994Z,323
2018-07-22T03:30:41.027Z,330
2018-07-22T03:31:11.223Z,340
2018-07-22T03:31:41.224Z,347
2018-07-22T03:32:11.376Z,353
2018-07-22T03:32:41.409Z,360
2018-07-22T03:33:11.666Z,367
2018-07-22T03:33:41.531Z,373
2018-07-22T03:34:11.687Z,380
2018-07-22T03:34:41.713Z,387
2018-07-22T03:35:11.870Z,397
2018-07-22T03:35:41.929Z,403
2018-07-22T03:36:12.069Z,410
2018-07-22T03:36:42.150Z,420
2018-07-22T03:37:12.277Z,427
2018-07-22T03:37:42.336Z,437
2018-07-22T03:38:12.570Z,450
2018-07-22T03:38:42.502Z,460
2018-07-22T03:39:12.653Z,473
2018-07-22T03:39:42.629Z,490
2018-07-22T03:40:12.796Z,503
2018-07-22T03:40:42.802Z,517
2018-07-22T03:41:12.958Z,533
2018-07-22T03:41:42.985Z,547
2018-07-22T03:42:13.139Z,563
2018-07-22T03:42:43.169Z,580
2018-07-22T03:43:13.447Z,600
2018-07-22T03:43:43.428Z,617
2018-07-22T03:44:13.535Z,637
2018-07-22T03:44:43.589Z,650
2018-07-22T03:45:13.726Z,670
2018-07-22T03:45:43.762Z,690
2018-07-22T03:46:13.904Z,710
2018-07-22T03:46:43.926Z,727
2018-07-22T03:47:14.069Z,743
2018-07-22T03:47:44.156Z,763
2018-07-22T03:48:14.386Z,780
2018-07-22T03:48:44.328Z,800
2018-07-22T03:49:14.425Z,820
2018-07-22T03:49:44.478Z,840
2018-07-22T03:50:14.615Z,860
2018-07-22T03:50:44.668Z,883
2018-07-22T03:51:14.749Z,907
2018-07-22T03:51:44.792Z,930
2018-07-22T03:52:14.932Z,953
2018-07-22T03:52:44.965Z,980
2018-07-22T03:53:15.249Z,1007
2018-07-22T03:53:45.138Z,1033
2018-07-22T03:54:15.346Z,1063
2018-07-22T03:54:45.330Z,1090
2018-07-22T03:55:15.478Z,1127
2018-07-22T03:55:45.574Z,1163
2018-07-22T03:56:15.642Z,1200
2018-07-22T03:56:45.819Z,1243
2018-07-22T03:57:15.830Z,1283
2018-07-22T03:57:45.858Z,1333
2018-07-22T03:58:16.126Z,1380
2018-07-22T03:58:46.066Z,1430
2018-07-22T03:59:16.178Z,1480
2018-07-22T03:59:46.272Z,1523
2018-07-22T04:00:16.376Z,1573
2018-07-22T04:00:46.442Z,1623
2018-07-22T04:01:16.588Z,1673
2018-07-22T04:01:46.633Z,1713
2018-07-22T04:02:16.746Z,1760
2018-07-22T04:02:46.795Z,1807
2018-07-22T04:03:17.073Z,1853
2018-07-22T04:03:47.555Z,1903
2018-07-22T04:04:17.728Z,1953
2018-07-22T04:04:47.747Z,2007
2018-07-22T04:05:17.923Z,2060
2018-07-22T04:05:47.924Z,2117
2018-07-22T04:06:18.074Z,2170
2018-07-22T04:06:48.134Z,2227
2018-07-22T04:07:18.311Z,2287
2018-07-22T04:07:48.547Z,2350
2018-07-22T04:08:18.477Z,2423
2018-07-22T04:08:48.477Z,2500
2018-07-22T04:09:18.623Z,2577
2018-07-22T04:09:48.711Z,2657
2018-07-22T04:10:18.799Z,2740
2018-07-22T04:10:48.870Z,2820
2018-07-22T04:11:19.010Z,2903
2018-07-22T04:11:49.031Z,2987
2018-07-22T04:12:19.224Z,3063
2018-07-22T04:12:49.371Z,3143
2018-07-22T04:13:19.396Z,3213
2018-07-22T04:13:49.432Z,3287
2018-07-22T04:14:19.578Z,3363
2018-07-22T04:14:49.616Z,3447
2018-07-22T04:15:19.787Z,3540
2018-07-22T04:15:49.785Z,3627
2018-07-22T04:16:19.960Z,3713
2018-07-22T04:16:49.980Z,3797
2018-07-22T04:17:20.107Z,3880
2018-07-22T04:17:50.283Z,3973
2018-07-22T04:18:20.321Z,4060
2018-07-22T04:18:50.324Z,4150
2018-07-22T04:19:20.436Z,4237
2018-07-22T04:19:50.471Z,4300
2018-07-22T04:20:20.632Z,4357
2018-07-22T04:20:50.722Z,4417
2018-07-22T04:21:20.801Z,4477
2018-07-22T04:21:50.834Z,4527
2018-07-22T04:22:20.973Z,4587
2018-07-22T04:22:51.133Z,4660
2018-07-22T04:23:21.146Z,4740
2018-07-22T04:23:51.231Z,4830
2018-07-22T04:24:21.318Z,4923
2018-07-22T04:24:51.409Z,5020
2018-07-22T04:25:21.560Z,5117
2018-07-22T04:25:51.536Z,5197
2018-07-22T04:26:21.728Z,5270
2018-07-22T04:26:51.746Z,5333
2018-07-22T04:27:21.908Z,5387
2018-07-22T04:27:52.053Z,5447
2018-07-22T04:28:22.097Z,5497
2018-07-22T04:28:52.094Z,5543
2018-07-22T04:29:22.281Z,5587
2018-07-22T04:29:52.329Z,5623
2018-07-22T04:30:22.462Z,5637
2018-07-22T04:30:52.483Z,5623
2018-07-22T04:31:22.690Z,5590
2018-07-22T04:31:52.783Z,5547
2018-07-22T04:32:22.922Z,5507
2018-07-22T04:32:53.063Z,5477
2018-07-22T04:33:23.114Z,5487
2018-07-22T04:33:53.117Z,5520
2018-07-22T04:34:23.281Z,5550
2018-07-22T04:34:53.321Z,5573
2018-07-22T04:35:23.432Z,5597
2018-07-22T04:35:53.493Z,5610
2018-07-22T04:36:23.581Z,5613
2018-07-22T04:36:53.671Z,5620
2018-07-22T04:37:23.763Z,5630
2018-07-22T04:37:53.915Z,5673
2018-07-22T04:38:23.941Z,5740
2018-07-22T04:38:53.962Z,5803
2018-07-22T04:39:24.110Z,5863
2018-07-22T04:39:54.193Z,5890
2018-07-22T04:40:24.302Z,5937
2018-07-22T04:40:54.400Z,6000
2018-07-22T04:41:24.527Z,6067
2018-07-22T04:41:54.534Z,6140
2018-07-22T04:42:24.639Z,6210
2018-07-22T04:42:54.798Z,6277
2018-07-22T04:43:24.822Z,6320
2018-07-22T04:43:54.851Z,6333
2018-07-22T04:44:24.999Z,6317
2018-07-22T04:44:55.099Z,6270
2018-07-22T04:45:25.206Z,6257
2018-07-22T04:45:55.210Z,6260
2018-07-22T04:46:25.395Z,6267
2018-07-22T04:46:55.451Z,6330
2018-07-22T04:47:25.588Z,6400
2018-07-22T04:47:55.751Z,6470
2018-07-22T04:48:25.797Z,6540
2018-07-22T04:48:55.794Z,6610
2018-07-22T04:49:25.935Z,6720
2018-07-22T04:49:55.978Z,6860
2018-07-22T04:50:26.158Z,7017
2018-07-22T04:50:56.197Z,7163
2018-07-22T04:51:26.261Z,7337
2018-07-22T04:51:56.312Z,7507
2018-07-22T04:52:26.495Z,7703
2018-07-22T04:52:56.674Z,7917
2018-07-22T04:53:26.682Z,8127
2018-07-22T04:53:56.701Z,8340
2018-07-22T04:54:26.790Z,8580
2018-07-22T04:54:56.817Z,8840
2018-07-22T04:55:26.981Z,9110
2018-07-22T04:55:57.007Z,9387
2018-07-22T04:56:27.168Z,9663
2018-07-22T04:56:57.213Z,9967
2018-07-22T04:57:27.384Z,10347
2018-07-22T04:57:57.556Z,10813
2018-07-22T04:58:27.579Z,11300
2018-07-22T04:58:57.595Z,11860
2018-07-22T04:59:27.689Z,12490
2018-07-22T04:59:57.734Z,13143
2018-07-22T05:00:27.864Z,13750
2018-07-22T05:00:57.902Z,14290
2018-07-22T05:01:28.139Z,14770
2018-07-22T05:01:58.098Z,15237
2018-07-22T05:02:28.239Z,15627
2018-07-22T05:02:58.428Z,15963
2018-07-22T05:03:28.451Z,16240
2018-07-22T05:03:58.504Z,16517
2018-07-22T05:04:28.635Z,16803
2018-07-22T05:04:58.680Z,16943
2018-07-22T05:05:28.802Z,16940
2018-07-22T05:05:58.845Z,16990
2018-07-22T05:06:59.043Z,17033
2018-07-22T05:07:29.150Z,17010
2018-07-22T05:07:59.336Z,16980
2018-07-22T05:08:29.317Z,16947
2018-07-22T05:08:59.400Z,16910
2018-07-22T05:09:29.492Z,16897
2018-07-22T05:09:59.572Z,16917
2018-07-22T05:10:29.653Z,16987
2018-07-22T05:10:59.685Z,17077
2018-07-22T05:11:29.841Z,17123
2018-07-22T05:11:59.866Z,17110
2018-07-22T05:12:30.014Z,17070
2018-07-22T05:13:00.231Z,17030
2018-07-22T05:13:30.187Z,17013
2018-07-22T05:14:01.594Z,16987
2018-07-22T05:14:30.375Z,16900
2018-07-22T05:15:00.928Z,16770
2018-07-22T05:15:30.615Z,16617
2018-07-22T05:16:00.996Z,16433
2018-07-22T05:16:30.722Z,16253
2018-07-22T05:17:01.458Z,16067
2018-07-22T05:17:30.904Z,15900
2018-07-22T05:18:01.838Z,15770
2018-07-22T05:18:31.095Z,15643
2018-07-22T05:19:01.550Z,15537
2018-07-22T05:19:31.252Z,15453
2018-07-22T05:20:01.554Z,15393
2018-07-22T05:20:31.495Z,15353
2018-07-22T05:21:01.464Z,15347
2018-07-22T05:21:31.682Z,15357
2018-07-22T05:22:01.677Z,15373
2018-07-22T05:22:31.854Z,15363
2018-07-22T05:23:02.008Z,15357
2018-07-22T05:23:32.682Z,15377
2018-07-22T05:24:02.757Z,15400
2018-07-22T05:24:32.941Z,15440
2018-07-22T05:25:02.920Z,15467
2018-07-22T05:25:33.252Z,15503
2018-07-22T05:26:03.222Z,15593
2018-07-22T05:26:33.430Z,15733
2018-07-22T05:27:03.432Z,15903
2018-07-22T05:27:33.562Z,16073
2018-07-22T05:28:03.695Z,16210
2018-07-22T05:28:33.756Z,16340
2018-07-22T05:29:03.744Z,16457
2018-07-22T05:29:33.894Z,16550
2018-07-22T05:30:03.970Z,16663
2018-07-22T05:30:34.064Z,16833
2018-07-22T05:31:04.114Z,17050
2018-07-22T05:31:34.251Z,17337
2018-07-22T05:32:04.309Z,17703
2018-07-22T05:32:34.501Z,18123
2018-07-22T05:33:04.619Z,18540
2018-07-22T05:33:34.626Z,18903
2018-07-22T05:34:04.692Z,19163
2018-07-22T05:34:34.839Z,19340
2018-07-22T05:35:04.853Z,19457
2018-07-22T05:35:34.954Z,19510
2018-07-22T05:36:05.072Z,19513
2018-07-22T05:36:35.167Z,19543
2018-07-22T05:37:05.217Z,19600
2018-07-22T05:37:35.369Z,19747
2018-07-22T05:38:05.539Z,20023
2018-07-22T05:38:35.521Z,20367
2018-07-22T05:39:05.547Z,20710
2018-07-22T05:39:35.731Z,21097
2018-07-22T05:40:05.766Z,21503
2018-07-22T05:40:35.910Z,21940
2018-07-22T05:41:05.965Z,22343
2018-07-22T05:41:36.055Z,22787
2018-07-22T05:42:06.421Z,23260
2018-07-22T05:42:36.250Z,23700
2018-07-22T05:43:06.314Z,24097
2018-07-22T05:43:36.511Z,24377
2018-07-22T05:44:06.460Z,24510
2018-07-22T05:44:36.606Z,24500
2018-07-22T05:45:06.629Z,24287
2018-07-22T05:45:36.808Z,23913
2018-07-22T05:46:06.847Z,23477
2018-07-22T05:46:37.008Z,23010
2018-07-22T05:47:07.024Z,22553
2018-07-22T05:47:37.164Z,22240
2018-07-22T05:48:07.384Z,22090
2018-07-22T05:48:37.361Z,22047
2018-07-22T05:49:07.428Z,22133
2018-07-22T05:49:37.563Z,22257
2018-07-22T05:50:07.632Z,22377
2018-07-22T05:50:37.734Z,22493
2018-07-22T05:51:07.756Z,22620
2018-07-22T05:51:37.919Z,22783
2018-07-22T05:52:07.939Z,22943
2018-07-22T05:52:38.080Z,23093
2018-07-22T05:53:08.216Z,23317
2018-07-22T05:53:38.300Z,23697
2018-07-22T05:54:08.330Z,24197
2018-07-22T05:54:38.456Z,24613
2018-07-22T05:55:08.479Z,25017
2018-07-22T05:55:38.637Z,25473
2018-07-22T05:56:08.638Z,26063
2018-07-22T05:56:38.772Z,26837
2018-07-22T05:57:08.801Z,27700
2018-07-22T05:57:38.939Z,28503
2018-07-22T05:58:08.973Z,29257
2018-07-22T05:58:39.186Z,30007
2018-07-22T05:59:09.225Z,30630
2018-07-22T05:59:39.398Z,31243
2018-07-22T06:00:09.396Z,31867
2018-07-22T06:00:39.540Z,32370
2018-07-22T06:01:09.540Z,32753
2018-07-22T06:01:39.724Z,33063
2018-07-22T06:02:09.702Z,33313
2018-07-22T06:02:39.862Z,33477
2018-07-22T06:03:09.932Z,33600
2018-07-22T06:03:40.023Z,33630
2018-07-22T06:04:10.061Z,33610
2018-07-22T06:04:40.276Z,33667
2018-07-22T06:05:10.300Z,33707
2018-07-22T06:05:40.428Z,33687
2018-07-22T06:06:10.491Z,33593
2018-07-22T06:06:40.614Z,33413
2018-07-22T06:07:10.680Z,33133
2018-07-22T06:07:40.808Z,32863
2018-07-22T06:08:10.845Z,32570
2018-07-22T06:08:41.010Z,32280
2018-07-22T06:09:11.030Z,32063
2018-07-22T06:09:41.150Z,31857
2018-07-22T06:10:11.203Z,31747
2018-07-22T06:10:41.299Z,31720
2018-07-22T06:11:11.381Z,31790
2018-07-22T06:11:41.530Z,31953
2018-07-22T06:12:11.594Z,32170
2018-07-22T06:12:41.658Z,32383
2018-07-22T06:13:11.805Z,32507
2018-07-22T06:13:41.830Z,32543
2018-07-22T06:14:11.863Z,32507
2018-07-22T06:14:42.056Z,32473
2018-07-22T06:15:12.042Z,32363
2018-07-22T06:15:42.213Z,32083
2018-07-22T06:16:12.212Z,31667
2018-07-22T06:16:42.494Z,31120
2018-07-22T06:17:12.421Z,30517
2018-07-22T06:17:42.586Z,29943
2018-07-22T06:18:12.697Z,29440
2018-07-22T06:18:42.767Z,28977
2018-07-22T06:19:12.799Z,28460
2018-07-22T06:19:42.961Z,27903
2018-07-22T06:20:12.987Z,27327
2018-07-22T06:20:43.141Z,26857
2018-07-22T06:21:13.205Z,26473
2018-07-22T06:21:43.363Z,26210
2018-07-22T06:22:13.405Z,26083
2018-07-22T06:22:43.568Z,26153
2018-07-22T06:23:13.682Z,26390
2018-07-22T06:23:43.750Z,26733
2018-07-22T06:24:13.763Z,27150
2018-07-22T06:24:43.921Z,27690
2018-07-22T06:25:13.884Z,28273
2018-07-22T06:25:44.079Z,28897
2018-07-22T06:26:14.063Z,29473
2018-07-22T06:26:44.212Z,30000
2018-07-22T06:27:14.280Z,30377
2018-07-22T06:27:44.412Z,30533
2018-07-22T06:28:14.567Z,30473
2018-07-22T06:28:44.686Z,30350
2018-07-22T06:29:14.664Z,30263
2018-07-22T06:29:44.740Z,30243
2018-07-22T06:30:14.789Z,30183
2018-07-22T06:30:44.913Z,29947
2018-07-22T06:31:14.958Z,29637
2018-07-22T06:31:45.097Z,29317
2018-07-22T06:32:15.130Z,29083
2018-07-22T06:32:45.324Z,29013
2018-07-22T06:33:15.304Z,28947
2018-07-22T06:33:45.520Z,29407
2018-07-22T06:34:15.530Z,29380
2018-07-22T06:34:45.637Z,29037
2018-07-22T06:35:15.783Z,29273
2018-07-22T06:35:45.804Z,29093
2018-07-22T06:36:15.850Z,29227
2018-07-22T06:36:46.099Z,29350
2018-07-22T06:37:16.025Z,29500
2018-07-22T06:37:46.159Z,29737
2018-07-22T06:38:16.239Z,29723
2018-07-22T06:38:46.350Z,29830
2018-07-22T06:39:16.417Z,29970
2018-07-22T06:39:46.519Z,30347
2018-07-22T06:40:16.585Z,30160
2018-07-22T06:40:46.736Z,30397
2018-07-22T06:41:16.895Z,30510
2018-07-22T06:41:47.041Z,30687
2018-07-22T06:42:16.922Z,30783
2018-07-22T06:42:47.112Z,31033
2018-07-22T06:43:17.148Z,31143
2018-07-22T06:43:47.303Z,31443
2018-07-22T06:44:17.329Z,31607
2018-07-22T06:44:47.462Z,31823
2018-07-22T06:45:17.515Z,32070
2018-07-22T06:45:47.665Z,32633
2018-07-22T06:46:17.687Z,33020
2018-07-22T06:46:47.890Z,33567
2018-07-22T06:47:17.830Z,33643
2018-07-22T06:47:47.983Z,34503
2018-07-22T06:48:18.010Z,34390
2018-07-22T06:48:48.202Z,34493
2018-07-22T06:49:18.201Z,34873
2018-07-22T06:49:48.377Z,34820
2018-07-22T06:50:18.437Z,35023
2018-07-22T06:50:48.516Z,35430
2018-07-22T06:51:18.566Z,35580
2018-07-22T06:51:49.219Z,35840
2018-07-22T06:52:18.747Z,36017
2018-07-22T06:52:48.891Z,36430
2018-07-22T06:53:18.911Z,36467
2018-07-22T06:53:49.115Z,36837
2018-07-22T06:54:19.199Z,36900
2018-07-22T06:54:49.280Z,36987
2018-07-22T06:55:19.352Z,36927
2018-07-22T06:55:49.449Z,36930
2018-07-22T06:56:19.509Z,36907
2018-07-22T06:57:19.767Z,36893
2018-07-22T06:57:49.853Z,36927
2018-07-22T06:58:19.858Z,36790
2018-07-22T06:58:50.027Z,36693
2018-07-22T06:59:20.070Z,36613
2018-07-22T06:59:50.203Z,36450
2018-07-22T07:00:20.249Z,36320
2018-07-22T07:00:50.506Z,36440
2018-07-22T07:01:20.381Z,36133
2018-07-22T07:01:50.532Z,36077
2018-07-22T07:02:20.573Z,35893
2018-07-22T07:02:50.719Z,35900
2018-07-22T07:03:20.769Z,36007
2018-07-22T07:03:50.902Z,35837
2018-07-22T07:04:20.975Z,35853
2018-07-22T07:04:51.128Z,36130
2018-07-22T07:05:21.187Z,35927
2018-07-22T07:05:51.327Z,35957
2018-07-22T07:06:21.323Z,36027
2018-07-22T07:06:51.533Z,36220
2018-07-22T07:07:21.564Z,36160
2018-07-22T07:07:51.672Z,36267
2018-07-22T07:08:21.666Z,36527
2018-07-22T07:08:51.807Z,36397
2018-07-22T07:09:21.856Z,36060
2018-07-22T07:09:52.031Z,36043
2018-07-22T07:10:22.005Z,36067
2018-07-22T07:10:52.209Z,35897
2018-07-22T07:11:22.185Z,35580
2018-07-22T07:11:52.377Z,35400
2018-07-22T07:12:22.413Z,35133
2018-07-22T07:12:53.206Z,34747
2018-07-22T07:13:23.177Z,34783
2018-07-22T07:13:53.382Z,34730
2018-07-22T07:14:23.350Z,34160
2018-07-22T07:14:53.566Z,34057
2018-07-22T07:15:23.532Z,33933
2018-07-22T07:15:53.708Z,34000
2018-07-22T07:16:23.703Z,34140
2018-07-22T07:16:53.875Z,34473
2018-07-22T07:17:23.895Z,34923
2018-07-22T07:17:54.034Z,35420
2018-07-22T07:18:24.070Z,36080
2018-07-22T07:18:54.260Z,36717
2018-07-22T07:19:24.314Z,37320
2018-07-22T07:19:54.450Z,37950
2018-07-22T07:20:24.488Z,38600
2018-07-22T07:20:54.677Z,39193
2018-07-22T07:21:24.619Z,40027
2018-07-22T07:21:54.773Z,40767
2018-07-22T07:22:24.800Z,41100
2018-07-22T07:22:54.943Z,41263
2018-07-22T07:23:24.990Z,41447
2018-07-22T07:23:55.125Z,41580
2018-07-22T07:24:25.186Z,41417
2018-07-22T07:24:55.355Z,41670
2018-07-22T07:25:25.361Z,40897
2018-07-22T07:25:55.519Z,40287
2018-07-22T07:26:25.591Z,39650
2018-07-22T07:26:55.778Z,39133
2018-07-22T07:27:25.783Z,38297
2018-07-22T07:27:55.874Z,37417
2018-07-22T07:28:25.960Z,36683
2018-07-22T07:28:56.101Z,36150
2018-07-22T07:29:26.111Z,35647
2018-07-22T07:29:56.278Z,35377
2018-07-22T07:30:26.274Z,35343
2018-07-22T07:30:56.465Z,35423
2018-07-22T07:31:26.506Z,35737
2018-07-22T07:31:56.639Z,36433
2018-07-22T07:32:26.646Z,36907
2018-07-22T07:32:56.776Z,37310
2018-07-22T07:33:26.800Z,37987
2018-07-22T07:33:56.987Z,38790
2018-07-22T07:34:27.104Z,39470
2018-07-22T07:34:57.141Z,39680
2018-07-22T07:35:27.180Z,40343
2018-07-22T07:35:57.377Z,40750
2018-07-22T07:36:27.399Z,41020
2018-07-22T07:36:57.542Z,41333
2018-07-22T07:37:27.579Z,41827
2018-07-22T07:37:58.039Z,42227
2018-07-22T07:38:28.049Z,42977
2018-07-22T07:38:58.245Z,43790
2018-07-22T07:39:28.237Z,44730
2018-07-22T07:39:58.466Z,45810
2018-07-22T07:40:28.544Z,46943
2018-07-22T07:40:58.655Z,48243
2018-07-22T07:41:28.690Z,49457
2018-07-22T07:41:58.818Z,50780
2018-07-22T07:42:28.877Z,51797
2018-07-22T07:42:59.033Z,52747
2018-07-22T07:43:29.061Z,53507
2018-07-22T07:43:59.182Z,54187
2018-07-22T07:44:29.228Z,54223
2018-07-22T07:44:59.324Z,54857
2018-07-22T07:45:29.410Z,55757
2018-07-22T07:45:59.543Z,54450
2018-07-22T07:46:29.645Z,66433
2018-07-22T07:46:59.683Z,61803
2018-07-22T07:47:29.723Z,56647
2018-07-22T07:47:59.861Z,56260
2018-07-22T07:48:29.914Z,55020
2018-07-22T07:49:00.073Z,59933
2018-07-22T07:49:30.087Z,56160
2018-07-22T07:50:00.987Z,56850
2018-07-22T07:50:30.321Z,67797
2018-07-22T07:51:01.751Z,62560
2018-07-22T07:51:30.464Z,72863
2018-07-22T07:52:01.643Z,72477
2018-07-22T07:52:30.657Z,65117
2018-07-22T07:53:01.627Z,75520
2018-07-22T07:53:31.281Z,61610
2018-07-22T07:54:01.384Z,77697
2018-07-22T07:54:31.414Z,77293
2018-07-22T07:55:01.528Z,74927
2018-07-22T07:55:31.610Z,72993
2018-07-22T07:56:01.707Z,63557
2018-07-22T07:56:31.734Z,58857
2018-07-22T07:57:01.925Z,67547
2018-07-22T07:57:31.963Z,55360
2018-07-22T07:58:02.059Z,52187
2018-07-22T07:58:32.093Z,48940
2018-07-22T07:59:02.235Z,47667
2018-07-22T07:59:32.304Z,48207
2018-07-22T08:00:02.471Z,45910
2018-07-22T08:00:32.449Z,45997
2018-07-22T08:01:02.637Z,45600
2018-07-22T08:01:32.646Z,45033
2018-07-22T08:02:02.802Z,47023
2018-07-22T08:02:32.806Z,48727
2018-07-22T08:03:02.951Z,51243
2018-07-22T08:03:33.038Z,48570
2018-07-22T08:04:03.176Z,51260
2018-07-22T08:04:33.199Z,48580
2018-07-22T08:05:03.312Z,48267
2018-07-22T08:05:33.420Z,47173
2018-07-22T08:06:03.519Z,46270
2018-07-22T08:06:33.591Z,46457
2018-07-22T08:07:03.704Z,47203
2018-07-22T08:07:33.726Z,47787
2018-07-22T08:08:03.864Z,47940
2018-07-22T08:08:33.892Z,49727
2018-07-22T08:09:04.024Z,64217
2018-07-22T08:09:34.074Z,77973
2018-07-22T08:10:04.201Z,74213
2018-07-22T08:10:34.272Z,61663
2018-07-22T08:11:04.380Z,66633
2018-07-22T08:11:34.505Z,74793
2018-07-22T08:12:04.592Z,69997
2018-07-22T08:12:34.641Z,49847
2018-07-22T08:13:04.776Z,73350
2018-07-22T08:13:34.795Z,53940
2018-07-22T08:14:04.915Z,70017
2018-07-22T08:14:34.997Z,75160
2018-07-22T08:15:05.144Z,56283
2018-07-22T08:15:35.134Z,66890
2018-07-22T08:16:05.325Z,53320
2018-07-22T08:16:35.359Z,45990
2018-07-22T08:17:05.484Z,61397
2018-07-22T08:17:35.544Z,57017
2018-07-22T08:18:05.634Z,48457
2018-07-22T08:18:35.708Z,46713
2018-07-22T08:19:05.879Z,62143
2018-07-22T08:19:35.843Z,81003
2018-07-22T08:20:05.999Z,73410
2018-07-22T08:20:36.029Z,53817
2018-07-22T08:21:06.164Z,63203
2018-07-22T08:21:36.294Z,89617
2018-07-22T08:22:06.445Z,60790
2018-07-22T08:22:36.376Z,82517
2018-07-22T08:23:06.547Z,78593
2018-07-22T08:23:36.618Z,71140
2018-07-22T08:24:06.696Z,80090
2018-07-22T08:24:36.742Z,80617
2018-07-22T08:25:06.882Z,62387
2018-07-22T08:25:36.913Z,58997
2018-07-22T08:26:07.122Z,64813
2018-07-22T08:26:37.136Z,53433
2018-07-22T08:27:07.255Z,63480
2018-07-22T08:27:37.326Z,79453
2018-07-22T08:28:07.492Z,85417
2018-07-22T08:28:37.494Z,87503
2018-07-22T08:29:07.669Z,89960
2018-07-22T08:29:37.713Z,79477
2018-07-22T08:30:07.836Z,88767
2018-07-22T08:30:37.950Z,93033
2018-07-22T08:31:08.016Z,67297
2018-07-22T08:31:38.014Z,91143
2018-07-22T08:32:08.238Z,66390
2018-07-22T08:32:38.219Z,91733
2018-07-22T08:33:08.346Z,65473
2018-07-22T08:33:38.395Z,58127
2018-07-22T08:34:08.532Z,83263
2018-07-22T08:34:38.668Z,91220
2018-07-22T08:35:08.766Z,70053
2018-07-22T08:35:38.722Z,92583
2018-07-22T08:36:08.886Z,91277
2018-07-22T08:36:38.918Z,92027
2018-07-22T08:37:09.064Z,73500
2018-07-22T08:37:39.150Z,79457
2018-07-22T08:38:09.276Z,93137
2018-07-22T08:38:39.300Z,70343
2018-07-22T08:39:09.444Z,76917
2018-07-22T08:39:39.503Z,80713
2018-07-22T08:40:09.638Z,82063
2018-07-22T08:40:39.642Z,75763
2018-07-22T08:41:09.818Z,84640
2018-07-22T08:41:39.861Z,84520
2018-07-22T08:42:09.960Z,97690
2018-07-22T08:42:40.026Z,84177
2018-07-22T08:43:10.134Z,66037
2018-07-22T08:43:40.166Z,73137
2018-07-22T08:44:10.400Z,62387
2018-07-22T08:44:40.359Z,96260
2018-07-22T08:45:10.526Z,64530
2018-07-22T08:45:40.533Z,74787
2018-07-22T08:46:10.730Z,68433
2018-07-22T08:46:40.762Z,96790
2018-07-22T08:47:10.847Z,82230
2018-07-22T08:47:40.971Z,69067
2018-07-22T08:48:11.050Z,61160
2018-07-22T08:48:41.088Z,68483
2018-07-22T08:49:11.237Z,97490
2018-07-22T08:49:41.311Z,85123
2018-07-22T08:50:11.382Z,96867
2018-07-22T08:50:41.423Z,96270
2018-07-22T08:51:11.592Z,96320
2018-07-22T08:51:41.722Z,96463
2018-07-22T08:52:11.788Z,96880
2018-07-22T08:52:41.796Z,96283
2018-07-22T08:53:11.969Z,95773
2018-07-22T08:53:41.942Z,95123
2018-07-22T08:54:12.152Z,95363
2018-07-22T08:54:42.128Z,95380
2018-07-22T08:55:12.348Z,95960
2018-07-22T08:55:42.338Z,96267
2018-07-22T08:56:12.506Z,96493
2018-07-22T08:56:42.486Z,96430
2018-07-22T08:57:12.666Z,95763
2018-07-22T08:57:42.681Z,95787
2018-07-22T08:58:12.839Z,95950
2018-07-22T08:58:42.851Z,95793
2018-07-22T08:59:12.998Z,95207
2018-07-22T08:59:43.021Z,95147
2018-07-22T09:00:13.173Z,95793
2018-07-22T09:00:43.252Z,96090
2018-07-22T09:01:13.372Z,96767
2018-07-22T09:01:43.419Z,97167
2018-07-22T09:02:13.574Z,97647
2018-07-22T09:02:43.600Z,97737
2018-07-22T09:03:13.725Z,98560
2018-07-22T09:03:43.787Z,98573
2018-07-22T09:04:13.916Z,99407
2018-07-22T09:04:43.923Z,99163
2018-07-22T09:05:14.082Z,98433
2018-07-22T09:05:44.128Z,98950
2018-07-22T09:06:14.232Z,100470
2018-07-22T09:06:44.337Z,102390
2018-07-22T09:07:14.443Z,105160
2018-07-22T09:07:44.495Z,106957
2018-07-22T09:08:14.635Z,107947
2018-07-22T09:08:44.627Z,108653
2018-07-22T09:09:14.786Z,109020
2018-07-22T09:09:44.837Z,108593
2018-07-22T09:10:14.952Z,108380
2018-07-22T09:10:45.014Z,108023
2018-07-22T09:11:15.201Z,108537
2018-07-22T09:11:45.304Z,108510
2018-07-22T09:12:15.385Z,108223
2018-07-22T09:12:45.417Z,109430
2018-07-22T09:13:15.532Z,110940
2018-07-22T09:13:45.607Z,111617
2018-07-22T09:14:15.702Z,111727
2018-07-22T09:14:45.747Z,107177
2018-07-22T09:15:15.894Z,100247
2018-07-22T09:15:45.910Z,94510
2018-07-22T09:16:16.057Z,84633
2018-07-22T09:16:46.087Z,77213
2018-07-22T09:17:16.251Z,74140
2018-07-22T09:17:46.386Z,71493
2018-07-22T09:18:16.463Z,74857
2018-07-22T09:18:46.483Z,86093
2018-07-22T09:19:16.676Z,102037
2018-07-22T09:19:46.711Z,107747
2018-07-22T09:20:16.844Z,107037
2018-07-22T09:20:46.908Z,106363
2018-07-22T09:21:17.008Z,102060
2018-07-22T09:21:47.053Z,91433
2018-07-22T09:22:17.184Z,90613
2018-07-22T09:22:47.178Z,93473
2018-07-22T09:23:17.363Z,103277
2018-07-22T09:23:47.381Z,108927
2018-07-22T09:24:17.558Z,113980
2018-07-22T09:24:47.604Z,114027
2018-07-22T09:25:17.712Z,113017
2018-07-22T09:25:47.772Z,113643
2018-07-22T09:26:17.881Z,114920
2018-07-22T09:26:47.954Z,116453
2018-07-22T09:27:18.152Z,120467
2018-07-22T09:27:48.099Z,122700
2018-07-22T09:28:18.282Z,125077
2018-07-22T09:28:48.275Z,125990
2018-07-22T09:29:18.444Z,123147
2018-07-22T09:29:48.507Z,112350
2018-07-22T09:30:18.654Z,104380
2018-07-22T09:30:48.633Z,95407
2018-07-22T09:31:18.800Z,97910
2018-07-22T09:31:48.813Z,96557
2018-07-22T09:32:18.967Z,100263
2018-07-22T09:32:48.995Z,105127